Time;durP1;ratioP1;P1;durP2;ratioP2;P2;SDS_P1;SDS_P2;PMS_P1;PMS_P2;Temp;Humidity;BMP_temperature;BMP_pressure;BME280_temperature;BME280_humidity;BME280_pressure;Samples;Min_cycle;Max_cycle;Signal;HPM_P1;HPM_P2
2023/10/22 00:01:50;;;;;;;;;2.00;1.67;;;;;13.43;83.95;99442.41;5088167;27;48532;-87
2023/10/22 00:04:16;;;;;;;;;3.00;1.00;;;;;13.66;84.22;99477.78;5097681;27;45363;-85
2023/10/22 00:06:42;;;;;;;;;3.67;1.67;;;;;13.68;83.40;99491.06;5082512;27;45722;-85
2023/10/22 00:09:07;;;;;;;;;4.00;2.00;;;;;13.67;83.23;99487.53;5081736;27;45267;-87
2023/10/22 00:11:33;;;;;;;;;2.33;2.00;;;;;13.10;83.39;99399.84;5083327;28;45322;-86
2023/10/22 00:13:58;;;;;;;;;6.67;2.67;;;;;13.54;83.07;99484.19;5082997;27;45350;-85
2023/10/22 00:16:24;;;;;;;;;4.67;2.33;;;;;13.42;83.29;99459.41;5102474;27;45367;-86
2023/10/22 00:18:49;;;;;;;;;5.00;2.00;;;;;13.73;83.27;99502.19;5102398;27;45400;-86
2023/10/22 00:21:14;;;;;;;;;3.00;1.67;;;;;13.60;82.91;99485.50;5101181;27;45330;-86
2023/10/22 00:23:40;;;;;;;;;3.00;1.00;;;;;13.64;82.77;99489.59;5086499;27;45254;-85
2023/10/22 00:26:05;;;;;;;;;2.00;1.67;;;;;13.77;82.64;99512.44;5099304;27;45473;-87
2023/10/22 00:28:31;;;;;;;;;4.67;2.33;;;;;13.66;82.45;99501.00;5103568;27;45640;-85
2023/10/22 00:30:56;;;;;;;;;1.33;1.33;;;;;13.75;82.36;99513.56;5104052;27;45242;-86
2023/10/22 00:33:22;;;;;;;;;3.33;2.00;;;;;13.61;82.59;99490.72;5094468;27;45340;-86
2023/10/22 00:35:58;;;;;;;;;1.00;1.00;;;;;13.74;82.34;99526.09;5105233;27;45447;-86
2023/10/22 00:38:24;;;;;;;;;2.00;2.00;;;;;13.39;82.69;99475.66;5103414;27;45372;-85
2023/10/22 00:40:49;;;;;;;;;2.00;2.00;;;;;13.65;82.72;99526.88;5103631;27;45195;-87
2023/10/22 00:43:14;;;;;;;;;1.67;1.00;;;;;13.68;82.88;99539.16;5091163;27;45195;-85
2023/10/22 00:45:40;;;;;;;;;9.67;3.00;;;;;13.62;82.73;99523.63;5092015;27;52957;-85
2023/10/22 00:48:08;;;;;;;;;4.33;1.00;;;;;13.64;81.96;99533.19;5100135;27;45961;-85
2023/10/22 00:50:34;;;;;;;;;2.67;1.00;;;;;13.45;82.37;99507.22;5098866;27;45952;-86
2023/10/22 00:53:00;;;;;;;;;2.67;2.67;;;;;13.58;82.00;99531.91;5099973;27;45389;-87
2023/10/22 00:55:26;;;;;;;;;3.00;2.00;;;;;13.56;82.03;99525.00;5102533;27;45597;-84
2023/10/22 00:57:52;;;;;;;;;3.00;2.00;;;;;13.63;82.04;99546.69;5099393;27;45401;-84
2023/10/22 01:00:19;;;;;;;;;3.00;1.00;;;;;13.61;82.01;99532.63;5100762;27;45416;-86
2023/10/22 01:02:45;;;;;;;;;2.33;2.33;;;;;13.65;81.97;99548.25;5096049;27;45326;-86
2023/10/22 01:05:10;;;;;;;;;3.33;2.33;;;;;13.46;81.68;99510.72;5100059;27;45255;-85
2023/10/22 01:07:36;;;;;;;;;8.33;2.67;;;;;13.48;81.54;99512.28;5102153;27;46547;-86
2023/10/22 01:10:03;;;;;;;;;1.67;1.00;;;;;13.67;81.40;99543.63;5080762;27;45529;-86
2023/10/22 01:12:35;;;;;;;;;8.33;3.33;;;;;13.68;81.11;99549.81;5078158;27;45263;-84
2023/10/22 01:15:01;;;;;;;;;1.67;1.67;;;;;13.60;81.14;99542.44;5080359;27;45304;-85
2023/10/22 01:17:27;;;;;;;;;1.00;1.00;;;;;13.68;81.17;99556.03;5095266;27;47832;-85
2023/10/22 01:19:52;;;;;;;;;5.33;3.00;;;;;13.48;81.23;99527.47;5081265;28;45690;-86
2023/10/22 01:22:18;;;;;;;;;3.00;2.00;;;;;13.46;80.78;99538.28;5081043;27;45362;-89
2023/10/22 01:24:43;;;;;;;;;4.00;2.67;;;;;13.55;80.98;99561.56;5099314;27;45274;-87
2023/10/22 01:27:08;;;;;;;;;3.67;2.00;;;;;13.47;80.62;99539.97;5101026;27;45354;-87
2023/10/22 01:29:34;;;;;;;;;5.00;4.00;;;;;13.64;80.37;99580.44;5102178;27;45436;-88
2023/10/22 01:31:59;;;;;;;;;3.67;2.00;;;;;13.38;80.35;99543.41;5102114;27;45236;-85
2023/10/22 01:34:25;;;;;;;;;2.00;2.00;;;;;13.25;80.50;99519.56;5097240;27;45358;-87
2023/10/22 01:36:50;;;;;;;;;1.00;1.00;;;;;13.12;80.24;99499.34;5082258;28;45460;-86
2023/10/22 01:39:16;;;;;;;;;1.00;1.00;;;;;13.66;80.11;99573.13;5082536;28;48023;-87
2023/10/22 01:41:41;;;;;;;;;1.33;1.33;;;;;13.63;79.91;99579.59;5082715;27;45406;-87
2023/10/22 01:44:07;;;;;;;;;3.67;2.00;;;;;13.38;79.78;99538.06;5096597;27;45598;-87
2023/10/22 01:46:32;;;;;;;;;3.00;2.00;;;;;13.55;79.51;99571.41;5079773;27;45342;-86
2023/10/22 01:48:58;;;;;;;;;4.00;3.00;;;;;13.48;79.96;99562.19;5079675;27;45647;-85
2023/10/22 01:51:23;;;;;;;;;2.00;2.00;;;;;13.61;80.18;99580.69;5078848;28;45336;-85
2023/10/22 01:53:49;;;;;;;;;3.00;2.00;;;;;13.36;79.27;99542.69;5087177;27;51608;-85
2023/10/22 01:56:15;;;;;;;;;3.00;1.67;;;;;13.45;79.37;99557.97;5079392;27;45578;-86
2023/10/22 01:58:40;;;;;;;;;2.67;2.67;;;;;13.61;79.73;99599.41;5077299;28;45666;-88
2023/10/22 02:01:06;;;;;;;;;2.00;2.00;;;;;13.60;79.90;99595.03;5109526;27;45401;-87
2023/10/22 02:03:35;;;;;;;;;1.00;1.00;;;;;13.56;79.88;99589.13;5084650;27;46367;-86
2023/10/22 02:06:00;;;;;;;;;1.33;1.33;;;;;13.49;79.41;99585.25;5078766;27;45462;-86
2023/10/22 02:08:25;;;;;;;;;3.33;2.00;;;;;13.39;79.42;99561.13;5079124;28;45439;-85
2023/10/22 02:10:51;;;;;;;;;4.00;2.33;;;;;13.60;79.15;99603.91;5095294;27;46318;-86
2023/10/22 02:13:17;;;;;;;;;3.00;2.00;;;;;13.17;79.23;99539.88;5093851;27;45489;-88
2023/10/22 02:15:43;;;;;;;;;4.33;0.67;;;;;13.45;79.17;99581.16;5078334;27;45489;-85
2023/10/22 02:18:08;;;;;;;;;2.33;1.00;;;;;13.53;79.69;99606.22;5077628;28;45406;-83
2023/10/22 02:20:34;;;;;;;;;1.67;1.67;;;;;13.47;78.95;99606.75;5079497;27;45409;-85
2023/10/22 02:23:00;;;;;;;;;2.33;1.67;;;;;13.24;79.45;99573.94;5086708;27;45583;-86
2023/10/22 02:25:27;;;;;;;;;3.67;2.00;;;;;13.24;79.54;99567.75;5101132;27;45405;-87
2023/10/22 02:27:53;;;;;;;;;3.33;1.00;;;;;13.39;79.66;99611.88;5103048;27;45401;-85
2023/10/22 02:30:19;;;;;;;;;0.00;0.00;;;;;13.44;79.46;99622.19;5103050;27;45439;-86
2023/10/22 02:32:44;;;;;;;;;11.67;2.33;;;;;13.50;79.81;99638.53;5105775;27;45344;-85
2023/10/22 02:35:10;;;;;;;;;5.67;2.00;;;;;13.00;79.10;99554.59;5102037;27;46802;-86
2023/10/22 02:37:36;;;;;;;;;2.67;1.67;;;;;12.99;79.33;99559.06;5086183;27;45673;-87
2023/10/22 02:40:01;;;;;;;;;5.00;3.00;;;;;13.50;79.94;99637.69;5078970;27;45515;-87
2023/10/22 02:42:27;;;;;;;;;3.00;2.33;;;;;13.24;79.77;99605.13;5079681;27;45488;-85
2023/10/22 02:44:52;;;;;;;;;3.00;2.33;;;;;13.28;79.45;99595.88;5078048;28;48079;-84
2023/10/22 02:47:18;;;;;;;;;2.33;1.00;;;;;13.09;79.16;99585.03;5078470;27;45370;-86
2023/10/22 02:49:43;;;;;;;;;4.33;2.00;;;;;13.35;79.61;99615.78;5082980;27;45602;-86
2023/10/22 02:52:08;;;;;;;;;2.00;1.67;;;;;13.40;79.64;99648.28;5100248;27;47544;-87
2023/10/22 02:54:34;;;;;;;;;3.00;1.00;;;;;13.37;79.77;99637.88;5099003;27;45331;-89
2023/10/22 02:56:59;;;;;;;;;2.33;1.00;;;;;12.96;79.37;99563.81;5098996;27;48629;-87
2023/10/22 02:59:25;;;;;;;;;1.00;1.00;;;;;13.50;79.49;99654.56;5096492;27;46240;-87
2023/10/22 03:01:51;;;;;;;;;6.00;2.00;;;;;13.48;79.49;99669.03;5099625;27;45401;-86
2023/10/22 03:04:16;;;;;;;;;3.67;3.00;;;;;13.16;80.09;99621.78;5099510;27;45286;-88
2023/10/22 03:06:41;;;;;;;;;1.67;1.67;;;;;13.35;79.83;99655.00;5097934;27;45286;-85
2023/10/22 03:09:07;;;;;;;;;12.00;2.00;;;;;13.19;80.52;99629.56;5098937;27;45425;-86
2023/10/22 03:11:32;;;;;;;;;2.00;2.00;;;;;13.30;80.83;99663.41;5097981;27;45325;-85
2023/10/22 03:13:58;;;;;;;;;4.00;1.33;;;;;12.90;81.08;99610.56;5098927;27;45893;-85
2023/10/22 03:16:23;;;;;;;;;1.67;1.67;;;;;13.24;81.45;99670.06;5098258;27;45669;-83
2023/10/22 03:18:50;;;;;;;;;2.67;2.33;;;;;13.26;81.82;99672.59;5092158;27;45593;-86
2023/10/22 03:21:17;;;;;;;;;2.00;2.00;;;;;13.09;81.51;99665.09;5097084;27;45470;-87
2023/10/22 03:23:43;;;;;;;;;5.00;2.00;;;;;13.20;81.61;99683.81;5097753;27;45459;-85
2023/10/22 03:26:16;;;;;;;;;5.33;1.00;;;;;13.20;81.66;99686.47;5096937;27;45328;-85
2023/10/22 03:28:42;;;;;;;;;3.67;2.00;;;;;13.01;81.99;99652.38;5080505;27;45451;-84
2023/10/22 03:31:08;;;;;;;;;1.00;1.00;;;;;13.12;81.44;99675.53;5096581;27;45592;-88
2023/10/22 03:33:34;;;;;;;;;3.00;1.00;;;;;12.82;82.11;99626.34;5098249;27;46094;-84
2023/10/22 03:36:00;;;;;;;;;3.33;1.00;;;;;12.87;81.63;99634.81;5103790;27;45184;-85
2023/10/22 03:38:26;;;;;;;;;3.00;2.00;;;;;12.82;81.74;99633.50;5107279;27;45329;-86
2023/10/22 03:40:58;;;;;;;;;1.67;1.00;;;;;13.22;81.68;99684.53;5111897;27;45573;-86
2023/10/22 03:43:24;;;;;;;;;3.33;1.33;;;;;13.20;81.40;99690.00;5100002;27;45623;-85
2023/10/22 03:45:49;;;;;;;;;2.33;0.67;;;;;12.85;81.72;99644.75;5089666;28;45358;-86
2023/10/22 03:48:14;;;;;;;;;1.33;0.00;;;;;13.14;81.51;99705.59;5093606;28;45331;-82
2023/10/22 03:50:43;;;;;;;;;1.67;1.67;;;;;13.17;81.91;99706.22;5096269;28;44898;-85
2023/10/22 03:53:08;;;;;;;;;3.00;1.00;;;;;12.83;82.20;99661.88;5099867;27;45188;-86
2023/10/22 03:55:33;;;;;;;;;1.67;0.00;;;;;12.83;81.88;99657.38;5095320;28;62421;-84
2023/10/22 03:57:59;;;;;;;;;0.67;0.33;;;;;12.93;82.15;99686.84;5093983;28;45346;-86
2023/10/22 04:00:24;;;;;;;;;1.00;1.00;;;;;12.99;82.33;99697.00;5090827;28;55676;-87
2023/10/22 04:02:49;;;;;;;;;4.00;1.00;;;;;12.96;82.70;99702.59;5095260;27;52709;-87
2023/10/22 04:05:15;;;;;;;;;4.33;2.00;;;;;12.95;82.94;99709.78;5108867;27;45323;-86
2023/10/22 04:07:40;;;;;;;;;2.67;1.00;;;;;12.81;83.52;99679.81;5099873;27;45388;-85
2023/10/22 04:10:09;;;;;;;;;1.00;1.00;;;;;13.14;83.41;99741.16;5109534;27;46635;-87
2023/10/22 04:12:35;;;;;;;;;3.00;1.00;;;;;13.09;82.65;99739.84;5109978;27;47273;-87
2023/10/22 04:15:01;;;;;;;;;4.00;1.00;;;;;12.93;83.36;99709.03;5089800;27;45190;-85
2023/10/22 04:17:26;;;;;;;;;3.67;1.00;;;;;13.13;83.40;99754.63;5081307;27;45325;-86
2023/10/22 04:19:51;;;;;;;;;1.33;1.33;;;;;13.13;83.64;99751.97;5079322;28;45736;-86
2023/10/22 04:22:17;;;;;;;;;1.33;0.33;;;;;12.92;83.41;99727.84;5083072;27;64409;-83
2023/10/22 04:24:42;;;;;;;;;3.33;1.00;;;;;12.94;83.76;99729.41;5079041;28;46033;-85
2023/10/22 04:27:07;;;;;;;;;1.00;1.00;;;;;13.09;82.96;99751.38;5096015;27;45317;-86
2023/10/22 04:29:33;;;;;;;;;0.00;0.00;;;;;13.09;82.87;99762.06;5080685;27;45499;-87
2023/10/22 04:31:58;;;;;;;;;1.00;1.00;;;;;12.86;82.98;99710.50;5079736;27;46237;-87
2023/10/22 04:34:23;;;;;;;;;2.33;1.00;;;;;12.96;83.01;99729.28;5098834;27;45503;-88
2023/10/22 04:36:49;;;;;;;;;4.00;1.00;;;;;13.27;82.52;99787.28;5100519;27;45339;-86
2023/10/22 04:39:14;;;;;;;;;3.67;1.00;;;;;12.81;82.61;99718.03;5099377;27;45531;-88
2023/10/22 04:41:40;;;;;;;;;2.00;0.33;;;;;13.22;82.12;99772.63;5098598;27;57872;-86
2023/10/22 04:44:05;;;;;;;;;1.00;1.00;;;;;12.77;82.22;99713.91;5098519;27;45934;-86
2023/10/22 04:46:31;;;;;;;;;4.33;1.00;;;;;12.98;82.15;99746.88;5100634;27;45282;-86
2023/10/22 04:48:56;;;;;;;;;0.67;0.67;;;;;12.81;82.21;99719.84;5099544;27;45281;-85
2023/10/22 04:51:21;;;;;;;;;2.67;1.00;;;;;13.11;82.07;99775.28;5099763;27;46398;-87
2023/10/22 04:53:47;;;;;;;;;1.33;1.00;;;;;13.13;81.37;99789.34;5096804;27;45426;-86
2023/10/22 04:56:12;;;;;;;;;1.00;1.00;;;;;13.19;81.90;99812.94;5100328;27;45499;-87
2023/10/22 04:58:37;;;;;;;;;4.00;1.00;;;;;12.93;82.06;99778.44;5097435;27;45589;-86
2023/10/22 05:01:03;;;;;;;;;1.00;1.00;;;;;12.63;81.81;99727.44;5093177;27;46421;-87
2023/10/22 05:03:28;;;;;;;;;3.00;2.00;;;;;13.16;82.22;99818.50;5084613;27;45463;-88
2023/10/22 05:05:55;;;;;;;;;4.33;1.33;;;;;12.72;82.08;99757.91;5079150;28;45317;-86
2023/10/22 05:08:23;;;;;;;;;1.67;1.67;;;;;12.83;82.09;99788.13;5080131;28;45522;-85
2023/10/22 05:10:48;;;;;;;;;1.67;1.67;;;;;13.06;82.30;99839.72;5079581;27;45421;-85
2023/10/22 05:13:13;;;;;;;;;2.00;1.00;;;;;13.06;82.06;99841.53;5079210;27;45458;-88
2023/10/22 05:15:39;;;;;;;;;1.67;0.33;;;;;13.06;81.68;99844.19;5081983;27;45609;-86
2023/10/22 05:18:08;;;;;;;;;3.67;2.00;;;;;12.86;82.32;99811.03;5081173;28;44886;-87
2023/10/22 05:20:34;;;;;;;;;1.33;1.00;;;;;13.11;81.93;99855.34;5080108;27;46314;-86
2023/10/22 05:23:03;;;;;;;;;2.33;1.00;;;;;13.01;81.91;99841.88;5097842;27;45872;-85
2023/10/22 05:25:28;;;;;;;;;3.00;1.33;;;;;12.70;81.75;99787.38;5097949;27;45405;-87
2023/10/22 05:27:55;;;;;;;;;3.00;1.33;;;;;13.18;82.07;99872.59;5089367;27;45587;-85
2023/10/22 05:30:20;;;;;;;;;1.67;1.00;;;;;13.20;81.73;99865.34;5079149;28;45372;-87
2023/10/22 05:32:45;;;;;;;;;5.67;1.00;;;;;13.20;81.49;99868.88;5087503;27;46454;-84
2023/10/22 05:35:10;;;;;;;;;1.00;1.00;;;;;13.02;80.80;99834.72;5098226;27;45288;-86
2023/10/22 05:37:36;;;;;;;;;1.67;1.67;;;;;13.23;81.04;99873.97;5099256;27;45361;-85
2023/10/22 05:40:01;;;;;;;;;2.00;0.00;;;;;13.25;81.33;99884.53;5097403;27;60301;-85
2023/10/22 05:42:26;;;;;;;;;3.00;1.67;;;;;13.23;80.96;99881.13;5098175;27;45379;-86
2023/10/22 05:44:52;;;;;;;;;1.67;1.67;;;;;13.04;81.14;99844.31;5099244;27;45340;-85
2023/10/22 05:47:17;;;;;;;;;2.67;2.00;;;;;13.24;81.30;99888.16;5092474;27;45509;-85
2023/10/22 05:49:45;;;;;;;;;2.00;1.00;;;;;13.20;80.71;99876.88;5094216;27;46714;-84
2023/10/22 05:52:10;;;;;;;;;2.00;2.00;;;;;13.24;80.73;99888.16;5099700;27;58501;-86
2023/10/22 05:54:36;;;;;;;;;2.33;1.33;;;;;13.24;80.60;99893.50;5107503;27;46331;-88
2023/10/22 05:57:02;;;;;;;;;2.00;0.67;;;;;13.12;80.48;99878.41;5103006;27;45381;-87
2023/10/22 05:59:27;;;;;;;;;1.00;1.00;;;;;13.13;81.14;99891.63;5099358;27;45581;-87
2023/10/22 06:01:52;;;;;;;;;2.33;1.00;;;;;13.00;80.96;99865.03;5097553;27;45501;-83
2023/10/22 06:04:18;;;;;;;;;3.00;2.33;;;;;12.99;81.06;99871.34;5097286;27;45460;-86
2023/10/22 06:06:43;;;;;;;;;1.00;1.00;;;;;13.16;81.57;99895.91;5101139;27;45349;-86
2023/10/22 06:09:11;;;;;;;;;1.33;1.00;;;;;13.21;81.34;99899.09;5101085;27;46078;-86
2023/10/22 06:11:36;;;;;;;;;2.33;1.00;;;;;13.08;80.72;99876.97;5100591;27;45394;-87
2023/10/22 06:14:05;;;;;;;;;2.00;1.67;;;;;13.17;81.43;99914.47;5098590;27;45450;-87
2023/10/22 06:16:31;;;;;;;;;4.33;2.00;;;;;13.19;81.00;99901.03;5100749;27;45208;-85
2023/10/22 06:18:57;;;;;;;;;2.00;1.67;;;;;13.03;81.24;99876.47;5099666;27;46253;-87
2023/10/22 06:21:22;;;;;;;;;2.00;2.00;;;;;13.11;81.31;99892.72;5080334;27;45391;-87
2023/10/22 06:23:51;;;;;;;;;3.00;2.67;;;;;13.23;80.93;99929.19;5079347;27;45464;-85
2023/10/22 06:26:17;;;;;;;;;2.00;0.33;;;;;13.27;81.28;99930.66;5086303;27;45494;-84
2023/10/22 06:28:46;;;;;;;;;1.00;1.00;;;;;13.34;81.42;99941.72;5102986;27;47293;-91
2023/10/22 06:31:13;;;;;;;;;1.00;1.00;;;;;13.04;80.79;99902.19;5114327;27;45556;-92
2023/10/22 06:33:40;;;;;;;;;4.00;1.00;;;;;12.69;81.47;99855.03;5096180;27;44804;-88
2023/10/22 06:36:13;;;;;;;;;6.67;2.00;;;;;13.35;81.53;99960.28;5111670;27;44936;-90
2023/10/22 06:38:38;;;;;;;;;5.33;1.00;;;;;12.57;81.23;99823.97;5107531;27;47631;-90
2023/10/22 06:41:11;;;;;;;;;0.00;0.00;;;;;13.15;80.90;99931.56;5108315;27;45312;-85
2023/10/22 06:43:40;;;;;;;;;1.00;1.00;;;;;13.05;81.41;99910.09;5102443;28;44636;-86
2023/10/22 06:46:09;;;;;;;;;4.00;1.00;;;;;13.00;81.45;99897.06;5101295;27;46043;-91
2023/10/22 06:48:38;;;;;;;;;1.67;1.67;;;;;13.40;81.50;99966.13;5099681;27;45328;-90
2023/10/22 06:51:09;;;;;;;;;2.00;1.00;;;;;12.73;81.09;99853.84;5101406;27;45372;-88
2023/10/22 06:53:34;;;;;;;;;3.00;2.00;;;;;13.05;81.06;99904.75;5096300;27;44887;-87
2023/10/22 06:56:02;;;;;;;;;2.33;1.00;;;;;13.26;80.77;99940.47;5099263;27;45447;-85
2023/10/22 06:58:27;;;;;;;;;1.00;1.00;;;;;13.45;81.04;99971.97;5089676;27;46564;-89
2023/10/22 07:01:05;;;;;;;;;2.67;1.00;;;;;13.20;80.79;99932.97;5091619;28;45638;-86
2023/10/22 07:03:34;;;;;;;;;2.00;0.33;;;;;13.12;80.67;99926.47;5099911;27;45252;-86
2023/10/22 07:06:00;;;;;;;;;2.33;1.00;;;;;13.55;80.66;99994.34;5108997;27;44696;-88
2023/10/22 07:08:29;;;;;;;;;5.00;2.00;;;;;13.55;80.59;99994.34;5098679;27;47237;-88
2023/10/22 07:10:55;;;;;;;;;2.00;1.00;;;;;13.56;80.44;100006.72;5070324;28;45516;-87
2023/10/22 07:13:20;;;;;;;;;0.33;0.33;;;;;13.60;80.43;100011.81;5090708;27;45381;-87
2023/10/22 07:15:50;;;;;;;;;2.00;0.00;;;;;13.61;80.24;100010.84;5096852;27;45476;-87
2023/10/22 07:18:17;;;;;;;;;5.00;1.67;;;;;12.95;80.46;99909.94;5108595;27;45252;-89
2023/10/22 07:20:44;;;;;;;;;3.33;1.67;;;;;13.19;79.89;99943.75;5100600;27;44800;-90
2023/10/22 07:23:16;;;;;;;;;2.00;0.00;;;;;13.48;79.74;99997.59;5115035;27;44914;-89
2023/10/22 07:25:41;;;;;;;;;1.00;1.00;;;;;13.77;80.14;100038.06;5123831;27;45248;-88
2023/10/22 07:28:07;;;;;;;;;4.00;1.00;;;;;13.08;79.81;99928.53;5113366;27;45433;-89
2023/10/22 07:30:33;;;;;;;;;1.00;1.00;;;;;13.71;79.17;100025.19;5112690;27;44714;-90
2023/10/22 07:32:59;;;;;;;;;3.00;1.00;;;;;13.21;79.68;99952.50;5091088;27;45359;-89
2023/10/22 07:35:24;;;;;;;;;0.00;0.00;;;;;13.75;79.49;100045.34;5101853;27;45659;-90
2023/10/22 07:37:50;;;;;;;;;1.33;1.33;;;;;13.79;79.95;100054.81;5107156;27;47970;-90
2023/10/22 07:40:19;;;;;;;;;2.00;2.00;;;;;13.11;79.34;99962.16;5090663;27;45289;-91
2023/10/22 07:42:48;;;;;;;;;1.00;1.00;;;;;13.81;79.46;100076.97;5089238;27;45336;-91
2023/10/22 07:45:32;;;;;;;;;2.67;1.00;;;;;13.77;80.07;100078.16;5114363;27;45636;-89
2023/10/22 07:47:58;;;;;;;;;0.00;0.00;;;;;13.53;80.06;100055.03;5110148;27;47317;-87
2023/10/22 07:50:25;;;;;;;;;1.67;1.00;;;;;13.31;80.21;100012.25;5089508;27;45384;-88
2023/10/22 07:52:50;;;;;;;;;2.00;2.00;;;;;13.49;79.81;100047.38;5110835;27;45471;-88
2023/10/22 07:55:17;;;;;;;;;3.33;1.00;;;;;13.35;79.66;100020.88;5106846;27;45626;-87
2023/10/22 07:57:42;;;;;;;;;2.00;0.67;;;;;13.62;79.58;100074.00;5092202;27;47255;-85
2023/10/22 08:00:08;;;;;;;;;5.00;1.67;;;;;13.64;80.08;100082.75;5099635;27;45225;-92
2023/10/22 08:02:33;;;;;;;;;5.33;3.00;;;;;13.75;80.10;100088.13;5088807;28;44771;-91
2023/10/22 08:04:59;;;;;;;;;7.00;4.00;;;;;13.34;79.46;100028.03;5100844;27;45226;-89
2023/10/22 08:07:24;;;;;;;;;2.00;2.00;;;;;13.85;80.70;100095.31;5099079;27;47665;-86
2023/10/22 08:09:50;;;;;;;;;6.67;3.00;;;;;13.82;80.10;100094.69;5123430;27;44716;-88
2023/10/22 08:12:16;;;;;;;;;9.33;4.00;;;;;13.53;80.66;100039.00;5093008;28;45290;-89
2023/10/22 08:14:42;;;;;;;;;2.00;2.00;;;;;13.93;80.76;100089.34;5091657;27;45196;-92
2023/10/22 08:17:08;;;;;;;;;1.00;0.00;;;;;13.63;80.52;100043.63;5107887;27;46298;-92
2023/10/22 08:19:33;;;;;;;;;1.00;1.00;;;;;13.84;81.37;100079.41;5096670;27;45429;-92
2023/10/22 08:21:59;;;;;;;;;2.33;2.33;;;;;13.83;80.66;100065.19;5099706;27;45432;-85
2023/10/22 08:24:25;;;;;;;;;3.67;2.00;;;;;14.03;80.98;100103.72;5082955;27;45394;-84
2023/10/22 08:26:50;;;;;;;;;3.00;2.00;;;;;14.07;80.97;100102.53;5080139;27;45956;-83
2023/10/22 08:29:15;;;;;;;;;3.67;2.33;;;;;13.95;81.05;100087.44;5089261;27;58830;-84
2023/10/22 08:31:41;;;;;;;;;7.00;2.67;;;;;14.11;80.25;100103.13;5080817;27;48622;-91
2023/10/22 08:34:06;;;;;;;;;1.00;1.00;;;;;14.13;80.28;100114.53;5086175;27;45380;-84
2023/10/22 08:36:32;;;;;;;;;3.67;3.67;;;;;14.16;79.55;100123.16;5082579;27;45291;-82
2023/10/22 08:38:57;;;;;;;;;4.33;2.00;;;;;14.24;80.19;100119.91;5091635;27;45436;-84
2023/10/22 08:41:28;;;;;;;;;2.67;2.33;;;;;14.39;79.62;100120.50;5097158;27;45733;-84
2023/10/22 08:43:55;;;;;;;;;1.00;1.00;;;;;14.21;79.17;100084.53;5097173;27;45490;-84
2023/10/22 08:46:20;;;;;;;;;2.00;1.00;;;;;14.52;78.40;100133.78;5087631;27;48076;-82
2023/10/22 08:48:46;;;;;;;;;2.00;2.00;;;;;14.46;78.63;100127.13;5089039;27;45381;-84
2023/10/22 08:51:11;;;;;;;;;3.33;2.00;;;;;14.54;78.43;100139.88;5079586;27;45875;-84
2023/10/22 08:53:37;;;;;;;;;4.00;2.67;;;;;14.52;78.49;100133.78;5083592;27;46464;-83
2023/10/22 08:56:03;;;;;;;;;2.00;2.00;;;;;14.51;78.17;100149.00;5083089;27;45473;-84
2023/10/22 08:58:28;;;;;;;;;5.00;2.00;;;;;14.45;78.44;100154.81;5085757;27;45464;-86
2023/10/22 09:00:54;;;;;;;;;4.33;1.00;;;;;14.45;78.59;100154.81;5099702;27;45292;-83
2023/10/22 09:03:20;;;;;;;;;1.00;1.00;;;;;14.51;78.68;100169.56;5061015;27;1197107;-86
2023/10/22 09:05:47;;;;;;;;;7.00;2.33;;;;;14.52;78.17;100165.91;5091398;27;45224;-83
2023/10/22 09:08:13;;;;;;;;;1.00;1.00;;;;;14.37;78.08;100149.22;5095917;27;45347;-85
2023/10/22 09:10:39;;;;;;;;;1.00;1.00;;;;;14.56;77.59;100173.56;5096011;27;45421;-82
2023/10/22 09:13:13;;;;;;;;;1.00;1.00;;;;;14.62;78.01;100178.44;5098953;27;45410;-82
2023/10/22 09:15:41;;;;;;;;;3.33;2.00;;;;;14.59;77.23;100168.00;5086843;27;45386;-81
2023/10/22 09:18:09;;;;;;;;;3.67;2.00;;;;;14.43;77.23;100130.00;5097107;27;44831;-87
2023/10/22 09:20:34;;;;;;;;;5.00;3.00;;;;;14.79;76.83;100187.78;5112586;27;45368;-86
2023/10/22 09:23:20;;;;;;;;;2.00;2.00;;;;;14.85;76.74;100189.16;5095367;27;45370;-86
2023/10/22 09:25:54;;;;;;;;;3.33;1.00;;;;;14.96;76.65;100197.16;5100368;27;47521;-84
2023/10/22 09:28:21;;;;;;;;;3.00;3.00;;;;;14.59;75.99;100122.50;5109019;27;45290;-86
2023/10/22 09:30:53;;;;;;;;;4.00;2.33;;;;;14.91;75.75;100148.47;5101199;27;45476;-86
2023/10/22 09:33:19;;;;;;;;;4.00;1.33;;;;;15.18;74.73;100191.75;5083464;27;45587;-90
2023/10/22 09:35:59;;;;;;;;;6.33;3.00;;;;;14.86;74.46;100139.97;5097795;27;45405;-89
2023/10/22 09:38:43;;;;;;;;;2.00;2.00;;;;;15.31;74.05;100196.97;5089298;27;45709;-86
2023/10/22 09:41:25;;;;;;;;;2.00;2.00;;;;;15.44;73.39;100202.16;5093565;27;45433;-88
2023/10/22 09:43:51;;;;;;;;;1.33;1.33;;;;;15.48;72.54;100196.41;5090292;27;45545;-85
2023/10/22 09:46:21;;;;;;;;;5.00;1.33;;;;;15.48;72.52;100192.91;5094335;27;47283;-89
2023/10/22 09:48:50;;;;;;;;;6.33;2.33;;;;;15.46;72.19;100178.78;5101161;27;46119;-86
2023/10/22 09:51:17;;;;;;;;;3.67;1.00;;;;;15.36;71.95;100162.59;5084863;27;45317;-88
2023/10/22 09:54:05;;;;;;;;;2.00;2.00;;;;;15.28;71.69;100125.75;5092882;27;46574;-86
2023/10/22 09:56:32;;;;;;;;;3.00;2.00;;;;;15.75;71.28;100201.34;5089503;27;47269;-87
2023/10/22 09:59:07;;;;;;;;;2.00;0.00;;;;;15.69;70.83;100164.34;5096751;27;45412;-90
2023/10/22 10:01:34;;;;;;;;;2.33;2.33;;;;;15.93;69.54;100154.22;5096262;27;45482;-87
2023/10/22 10:04:02;;;;;;;;;1.00;1.00;;;;;16.31;68.58;100181.44;5101997;27;45496;-90
2023/10/22 10:06:30;;;;;;;;;1.33;1.00;;;;;16.45;67.88;100198.03;5105744;27;47181;-88
2023/10/22 10:08:59;;;;;;;;;3.00;1.33;;;;;16.53;67.55;100187.47;5084789;27;46330;-90
2023/10/22 10:11:27;;;;;;;;;4.33;2.00;;;;;16.51;66.06;100184.06;5080448;28;45480;-86
2023/10/22 10:13:52;;;;;;;;;4.00;2.00;;;;;16.72;66.05;100208.22;5082655;28;45431;-86
2023/10/22 10:16:22;;;;;;;;;0.33;0.33;;;;;16.28;65.63;100150.34;5087802;28;46963;-83
2023/10/22 10:19:01;;;;;;;;;1.00;1.00;;;;;16.63;65.68;100202.78;5084764;27;45333;-84
2023/10/22 10:21:39;;;;;;;;;2.67;2.00;;;;;16.82;64.36;100213.66;5082542;27;45562;-85
2023/10/22 10:24:22;;;;;;;;;3.00;2.33;;;;;17.00;62.80;100217.38;5083256;27;45360;-86
2023/10/22 10:26:55;;;;;;;;;5.00;1.67;;;;;17.12;61.23;100191.25;5079204;27;47504;-84
2023/10/22 10:29:22;;;;;;;;;1.67;1.67;;;;;17.20;61.13;100155.66;5080291;27;45226;-88
2023/10/22 10:31:50;;;;;;;;;2.33;1.00;;;;;17.77;59.92;100216.72;5084300;27;45219;-87
2023/10/22 10:34:39;;;;;;;;;2.00;2.00;;;;;17.89;59.10;100209.34;5087756;27;45380;-88
2023/10/22 10:37:15;;;;;;;;;3.00;2.00;;;;;17.90;57.67;100185.00;5078694;27;45811;-87
2023/10/22 10:39:42;;;;;;;;;3.67;2.00;;;;;18.18;57.54;100215.56;5093885;27;45422;-88
2023/10/22 10:42:09;;;;;;;;;5.33;2.00;;;;;18.04;57.14;100188.25;5099797;27;45453;-86
2023/10/22 10:45:03;;;;;;;;;2.67;2.67;;;;;18.39;57.41;100220.78;5083404;27;45367;-94
2023/10/22 10:47:29;;;;;;;;;3.33;1.67;;;;;18.54;56.11;100213.06;5090044;27;45520;-83
2023/10/22 10:50:10;;;;;;;;;4.67;3.00;;;;;18.81;55.23;100215.84;5078798;27;45572;-89
2023/10/22 10:52:38;;;;;;;;;1.00;1.00;;;;;19.12;54.35;100221.78;5079545;28;45382;-84
2023/10/22 10:55:15;;;;;;;;;1.33;1.33;;;;;19.47;52.78;100220.19;5081375;27;45573;-88
2023/10/22 10:57:44;;;;;;;;;3.33;2.00;;;;;19.37;53.20;100182.47;5098974;27;45499;-88
2023/10/22 11:00:19;;;;;;;;;2.00;1.00;;;;;19.80;51.19;100201.66;5096934;27;45392;-89
2023/10/22 11:02:46;;;;;;;;;3.00;1.00;;;;;19.98;50.47;100203.34;5062836;28;45371;-89
2023/10/22 11:05:12;;;;;;;;;2.00;1.00;;;;;20.01;51.14;100149.03;5085322;27;45226;-88
2023/10/22 11:07:38;;;;;;;;;1.67;1.67;;;;;21.04;49.69;100220.25;5084866;28;45366;-88
2023/10/22 11:10:12;;;;;;;;;1.67;1.67;;;;;21.09;49.61;100204.38;5081631;27;45464;-88
2023/10/22 11:12:38;;;;;;;;;2.00;0.67;;;;;20.97;48.68;100196.75;5079778;28;45193;-87
2023/10/22 11:15:04;;;;;;;;;1.25;1.25;;;;;20.64;49.21;100209.25;5084934;28;45531;-87
2023/10/22 11:17:30;;;;;;;;;2.33;0.67;;;;;19.83;48.50;100167.13;5090918;28;46574;-88
2023/10/22 11:19:56;;;;;;;;;1.00;1.00;;;;;19.74;50.01;100211.22;5090314;27;44733;-88
2023/10/22 11:22:22;;;;;;;;;1.67;1.00;;;;;19.22;50.16;100170.53;5085905;28;45398;-86
2023/10/22 11:24:47;;;;;;;;;5.00;4.00;;;;;19.13;50.31;100203.78;5081603;28;45532;-88
2023/10/22 11:27:15;;;;;;;;;4.00;2.00;;;;;18.91;50.70;100190.72;5080413;28;48018;-88
2023/10/22 11:29:45;;;;;;;;;11.33;7.00;;;;;18.77;50.82;100184.81;5102581;27;45369;-87